Adrian, Missouri
Current Conditions -  °F | °C
As of 10:35 PM on Wednesday 22 Oct 2014 (Local Time) from KGLY Reporting Station
Clear Clear  
Wind Chill: 14°   Ceiling: Unl
Heat Index: 14°   Visibility: 10mi
Dew Point:   Wind: 3mph
Humidity: 72%   Direction: 130°SE
Pressure: 30.16"   Gusts: NA
Location:  38.4°N, 94.35°W
Report Text: KGLY 230335Z AUTO 13003KT 10SM CLR 14/09 A3016 RMK AO2
Loading
Personal Weather Stations






























Interactive Weather Map New forecast layout! Learn more

10-Day Weather Forecast

Advertisements
Track Severe Weather on mobile